sensor_id;sensor_type;location;lat;lon;timestamp;pressure;altitude;pressure_sealevel;temperature;humidity
49044;BME280;34860;48.066;14.124;2023-12-20T00:01:12;96639.84;;;2.84;73.73
49044;BME280;34860;48.066;14.124;2023-12-20T00:04:00;96636.75;;;2.96;73.48
49044;BME280;34860;48.066;14.124;2023-12-20T00:06:49;96643.81;;;3.04;73.59
49044;BME280;34860;48.066;14.124;2023-12-20T00:09:40;96647.75;;;3.03;73.43
49044;BME280;34860;48.066;14.124;2023-12-20T00:12:28;96643.44;;;3.02;73.62
49044;BME280;34860;48.066;14.124;2023-12-20T00:15:18;96637.16;;;3.09;73.55
49044;BME280;34860;48.066;14.124;2023-12-20T00:18:06;96634.84;;;3.15;73.50
49044;BME280;34860;48.066;14.124;2023-12-20T00:20:55;96628.59;;;3.21;73.46
49044;BME280;34860;48.066;14.124;2023-12-20T00:23:43;96626.59;;;3.25;73.44
49044;BME280;34860;48.066;14.124;2023-12-20T00:26:32;96636.03;;;3.28;73.44
49044;BME280;34860;48.066;14.124;2023-12-20T00:29:26;96632.13;;;3.29;73.49
49044;BME280;34860;48.066;14.124;2023-12-20T00:32:15;96619.56;;;3.32;73.47
49044;BME280;34860;48.066;14.124;2023-12-20T00:35:04;96619.59;;;3.39;73.42
49044;BME280;34860;48.066;14.124;2023-12-20T00:37:52;96614.50;;;3.48;73.33
49044;BME280;34860;48.066;14.124;2023-12-20T00:40:42;96617.22;;;3.59;73.32
49044;BME280;34860;48.066;14.124;2023-12-20T00:43:30;96614.09;;;3.68;73.10
49044;BME280;34860;48.066;14.124;2023-12-20T00:46:18;96607.03;;;3.77;73.09
49044;BME280;34860;48.066;14.124;2023-12-20T00:49:08;96604.69;;;3.83;73.06
49044;BME280;34860;48.066;14.124;2023-12-20T00:51:56;96594.06;;;3.89;72.96
49044;BME280;34860;48.066;14.124;2023-12-20T00:54:44;96587.75;;;3.95;72.95
49044;BME280;34860;48.066;14.124;2023-12-20T00:57:35;96579.13;;;4.00;72.98
49044;BME280;34860;48.066;14.124;2023-12-20T01:00:26;96577.13;;;4.08;72.71
49044;BME280;34860;48.066;14.124;2023-12-20T01:03:16;96567.72;;;4.16;72.74
49044;BME280;34860;48.066;14.124;2023-12-20T01:06:09;96562.56;;;4.26;72.67
49044;BME280;34860;48.066;14.124;2023-12-20T01:08:57;96560.53;;;4.37;72.44
49044;BME280;34860;48.066;14.124;2023-12-20T01:11:48;96555.00;;;4.55;72.25
49044;BME280;34860;48.066;14.124;2023-12-20T01:14:36;96545.91;;;4.62;72.15
49044;BME280;34860;48.066;14.124;2023-12-20T01:17:26;96536.47;;;4.63;72.00
49044;BME280;34860;48.066;14.124;2023-12-20T01:20:14;96542.00;;;4.63;72.13
49044;BME280;34860;48.066;14.124;2023-12-20T01:23:05;96535.28;;;4.64;72.16
49044;BME280;34860;48.066;14.124;2023-12-20T01:25:54;96536.84;;;4.68;72.23
49044;BME280;34860;48.066;14.124;2023-12-20T01:28:43;96528.53;;;4.76;72.19
49044;BME280;34860;48.066;14.124;2023-12-20T01:31:31;96525.34;;;4.84;71.85
49044;BME280;34860;48.066;14.124;2023-12-20T01:34:19;96518.63;;;4.89;71.68
49044;BME280;34860;48.066;14.124;2023-12-20T01:37:09;96516.72;;;4.82;71.71
49044;BME280;34860;48.066;14.124;2023-12-20T01:40:00;96504.16;;;4.78;71.77
49044;BME280;34860;48.066;14.124;2023-12-20T01:42:58;96498.25;;;4.72;71.91
49044;BME280;34860;48.066;14.124;2023-12-20T01:45:47;96497.91;;;4.66;71.92
49044;BME280;34860;48.066;14.124;2023-12-20T01:48:35;96489.28;;;4.61;72.01
49044;BME280;34860;48.066;14.124;2023-12-20T01:51:23;96488.94;;;4.55;72.05
49044;BME280;34860;48.066;14.124;2023-12-20T01:54:14;96485.81;;;4.49;72.26
49044;BME280;34860;48.066;14.124;2023-12-20T01:57:05;96484.66;;;4.47;72.23
49044;BME280;34860;48.066;14.124;2023-12-20T01:59:55;96495.75;;;4.32;72.17
49044;BME280;34860;48.066;14.124;2023-12-20T02:02:44;96489.50;;;4.17;72.73
49044;BME280;34860;48.066;14.124;2023-12-20T02:05:35;96495.00;;;4.17;72.75
49044;BME280;34860;48.066;14.124;2023-12-20T02:08:27;96498.56;;;4.18;72.62
49044;BME280;34860;48.066;14.124;2023-12-20T02:11:19;96494.22;;;4.17;72.55
49044;BME280;34860;48.066;14.124;2023-12-20T02:14:08;96487.94;;;4.13;72.48
49044;BME280;34860;48.066;14.124;2023-12-20T02:16:59;96485.59;;;4.08;72.52
49044;BME280;34860;48.066;14.124;2023-12-20T02:19:49;96480.47;;;4.10;72.46
49044;BME280;34860;48.066;14.124;2023-12-20T02:22:42;96465.56;;;4.11;72.36
49044;BME280;34860;48.066;14.124;2023-12-20T02:25:30;96469.88;;;4.08;72.41
49044;BME280;34860;48.066;14.124;2023-12-20T02:28:19;96449.47;;;4.09;72.28
49044;BME280;34860;48.066;14.124;2023-12-20T02:31:09;96449.84;;;4.11;72.16
49044;BME280;34860;48.066;14.124;2023-12-20T02:33:58;96447.50;;;4.13;71.92
49044;BME280;34860;48.066;14.124;2023-12-20T02:36:46;96442.75;;;4.14;72.05
49044;BME280;34860;48.066;14.124;2023-12-20T02:39:36;96433.75;;;4.13;71.86
49044;BME280;34860;48.066;14.124;2023-12-20T02:42:24;96425.09;;;4.15;71.68
49044;BME280;34860;48.066;14.124;2023-12-20T02:45:13;96422.72;;;4.13;71.65
49044;BME280;34860;48.066;14.124;2023-12-20T02:48:06;96416.06;;;4.11;71.91
49044;BME280;34860;48.066;14.124;2023-12-20T02:50:54;96421.19;;;4.09;71.84
49044;BME280;34860;48.066;14.124;2023-12-20T02:53:43;96408.22;;;4.06;71.91
49044;BME280;34860;48.066;14.124;2023-12-20T02:56:33;96399.19;;;4.05;71.73
49044;BME280;34860;48.066;14.124;2023-12-20T02:59:25;96398.81;;;4.03;71.65
49044;BME280;34860;48.066;14.124;2023-12-20T03:02:13;96392.94;;;4.01;71.64
49044;BME280;34860;48.066;14.124;2023-12-20T03:05:04;96402.34;;;4.00;71.80
49044;BME280;34860;48.066;14.124;2023-12-20T03:07:53;96391.78;;;3.95;71.92
49044;BME280;34860;48.066;14.124;2023-12-20T03:10:41;96398.06;;;3.95;71.86
49044;BME280;34860;48.066;14.124;2023-12-20T03:13:32;96389.81;;;3.92;71.83
49044;BME280;34860;48.066;14.124;2023-12-20T03:16:20;96394.91;;;3.97;71.68
49044;BME280;34860;48.066;14.124;2023-12-20T03:19:08;96390.16;;;4.05;71.61
49044;BME280;34860;48.066;14.124;2023-12-20T03:21:56;96392.47;;;4.17;71.35
49044;BME280;34860;48.066;14.124;2023-12-20T03:24:47;96392.03;;;4.22;71.13
49044;BME280;34860;48.066;14.124;2023-12-20T03:27:37;96386.13;;;4.24;71.26
49044;BME280;34860;48.066;14.124;2023-12-20T03:30:29;96385.69;;;4.29;71.12
49044;BME280;34860;48.066;14.124;2023-12-20T03:33:21;96384.50;;;4.33;71.14
49044;BME280;34860;48.066;14.124;2023-12-20T03:36:10;96395.88;;;4.39;70.88
49044;BME280;34860;48.066;14.124;2023-12-20T03:38:58;96401.31;;;4.46;71.02
49044;BME280;34860;48.066;14.124;2023-12-20T03:41:48;96401.69;;;4.52;70.79
49044;BME280;34860;48.066;14.124;2023-12-20T03:44:38;96407.94;;;4.56;70.71
49044;BME280;34860;48.066;14.124;2023-12-20T03:47:28;96398.09;;;4.59;70.62
49044;BME280;34860;48.066;14.124;2023-12-20T03:50:21;96402.38;;;4.63;70.62
49044;BME280;34860;48.066;14.124;2023-12-20T03:53:09;96399.25;;;4.61;70.66
49044;BME280;34860;48.066;14.124;2023-12-20T03:56:01;96401.63;;;4.59;70.65
49044;BME280;34860;48.066;14.124;2023-12-20T03:58:51;96393.34;;;4.63;70.73
49044;BME280;34860;48.066;14.124;2023-12-20T04:01:43;96389.81;;;4.62;70.47
49044;BME280;34860;48.066;14.124;2023-12-20T04:04:32;96382.34;;;4.63;70.66
49044;BME280;34860;48.066;14.124;2023-12-20T04:07:21;96383.13;;;4.63;70.54
49044;BME280;34860;48.066;14.124;2023-12-20T04:10:11;96378.38;;;4.64;70.80
49044;BME280;34860;48.066;14.124;2023-12-20T04:13:00;96372.91;;;4.60;70.77
49044;BME280;34860;48.066;14.124;2023-12-20T04:15:48;96369.34;;;4.63;70.74
49044;BME280;34860;48.066;14.124;2023-12-20T04:18:40;96362.66;;;4.68;70.58
49044;BME280;34860;48.066;14.124;2023-12-20T04:21:29;96364.59;;;4.71;70.47
49044;BME280;34860;48.066;14.124;2023-12-20T04:24:20;96357.47;;;4.73;70.33
49044;BME280;34860;48.066;14.124;2023-12-20T04:27:09;96373.97;;;4.77;70.24
49044;BME280;34860;48.066;14.124;2023-12-20T04:29:57;96372.31;;;4.83;70.30
49044;BME280;34860;48.066;14.124;2023-12-20T04:32:49;96376.31;;;4.79;70.23
49044;BME280;34860;48.066;14.124;2023-12-20T04:35:37;96381.53;;;4.62;70.84
49044;BME280;34860;48.066;14.124;2023-12-20T04:38:28;96385.19;;;4.48;71.27
49044;BME280;34860;48.066;14.124;2023-12-20T04:41:17;96397.78;;;4.46;71.32
49044;BME280;34860;48.066;14.124;2023-12-20T04:44:05;96386.34;;;4.51;71.26
49044;BME280;34860;48.066;14.124;2023-12-20T04:46:54;96389.47;;;4.57;71.09
49044;BME280;34860;48.066;14.124;2023-12-20T04:49:43;96390.22;;;4.61;70.90
49044;BME280;34860;48.066;14.124;2023-12-20T04:52:36;96391.38;;;4.63;70.75
49044;BME280;34860;48.066;14.124;2023-12-20T04:55:29;96392.16;;;4.64;70.67
49044;BME280;34860;48.066;14.124;2023-12-20T04:58:17;96396.09;;;4.63;70.68
49044;BME280;34860;48.066;14.124;2023-12-20T05:01:11;96395.72;;;4.61;70.58
49044;BME280;34860;48.066;14.124;2023-12-20T05:03:59;96404.34;;;4.66;70.42
49044;BME280;34860;48.066;14.124;2023-12-20T05:06:48;96407.78;;;4.78;70.09
49044;BME280;34860;48.066;14.124;2023-12-20T05:09:36;96415.16;;;4.91;70.10
49044;BME280;34860;48.066;14.124;2023-12-20T05:12:26;96420.56;;;5.02;69.79
49044;BME280;34860;48.066;14.124;2023-12-20T05:15:14;96427.59;;;5.11;69.73
49044;BME280;34860;48.066;14.124;2023-12-20T05:18:02;96438.53;;;5.18;69.53
49044;BME280;34860;48.066;14.124;2023-12-20T05:20:52;96455.31;;;5.34;69.17
49044;BME280;34860;48.066;14.124;2023-12-20T05:23:42;96458.34;;;5.47;68.95
49044;BME280;34860;48.066;14.124;2023-12-20T05:26:33;96463.84;;;5.51;68.98
49044;BME280;34860;48.066;14.124;2023-12-20T05:29:22;96470.03;;;5.58;69.02
49044;BME280;34860;48.066;14.124;2023-12-20T05:32:14;96470.41;;;5.64;68.90
49044;BME280;34860;48.066;14.124;2023-12-20T05:35:03;96460.50;;;5.70;68.65
49044;BME280;34860;48.066;14.124;2023-12-20T05:37:51;96474.22;;;5.74;68.67
49044;BME280;34860;48.066;14.124;2023-12-20T05:40:41;96473.41;;;5.77;68.78
49044;BME280;34860;48.066;14.124;2023-12-20T05:43:29;96456.88;;;5.77;68.85
49044;BME280;34860;48.066;14.124;2023-12-20T05:46:19;96458.00;;;5.83;68.81
49044;BME280;34860;48.066;14.124;2023-12-20T05:49:08;96461.91;;;5.86;68.86
49044;BME280;34860;48.066;14.124;2023-12-20T05:51:57;96457.09;;;5.97;68.73
49044;BME280;34860;48.066;14.124;2023-12-20T05:54:45;96474.31;;;6.05;68.66
49044;BME280;34860;48.066;14.124;2023-12-20T05:57:38;96489.69;;;6.06;68.71
49044;BME280;34860;48.066;14.124;2023-12-20T06:00:26;96484.56;;;6.04;68.57
49044;BME280;34860;48.066;14.124;2023-12-20T06:03:16;96480.63;;;6.05;68.77
49044;BME280;34860;48.066;14.124;2023-12-20T06:06:06;96486.56;;;6.04;68.91
49044;BME280;34860;48.066;14.124;2023-12-20T06:08:57;96469.25;;;5.99;68.84
49044;BME280;34860;48.066;14.124;2023-12-20T06:11:45;96475.56;;;6.00;68.94
49044;BME280;34860;48.066;14.124;2023-12-20T06:14:35;96455.47;;;5.99;68.92
49044;BME280;34860;48.066;14.124;2023-12-20T06:17:25;96457.03;;;6.00;69.06
49044;BME280;34860;48.066;14.124;2023-12-20T06:20:15;96446.00;;;6.00;69.17
49044;BME280;34860;48.066;14.124;2023-12-20T06:23:03;96471.66;;;5.97;69.09
49044;BME280;34860;48.066;14.124;2023-12-20T06:25:51;96470.88;;;5.93;69.06
49044;BME280;34860;48.066;14.124;2023-12-20T06:28:44;96476.06;;;5.88;69.25
49044;BME280;34860;48.066;14.124;2023-12-20T06:31:32;96492.25;;;5.86;69.35
49044;BME280;34860;48.066;14.124;2023-12-20T06:34:21;96487.16;;;5.84;69.22
49044;BME280;34860;48.066;14.124;2023-12-20T06:37:10;96500.53;;;5.86;69.26
49044;BME280;34860;48.066;14.124;2023-12-20T06:40:02;96502.06;;;5.87;69.05
49044;BME280;34860;48.066;14.124;2023-12-20T06:42:50;96498.50;;;5.90;68.87
49044;BME280;34860;48.066;14.124;2023-12-20T06:45:40;96510.66;;;5.96;68.69
49044;BME280;34860;48.066;14.124;2023-12-20T06:48:28;96512.56;;;6.03;68.61
49044;BME280;34860;48.066;14.124;2023-12-20T06:51:19;96509.75;;;6.10;68.31
49044;BME280;34860;48.066;14.124;2023-12-20T06:54:08;96516.09;;;6.07;68.44
49044;BME280;34860;48.066;14.124;2023-12-20T06:56:56;96537.84;;;5.97;68.80
49044;BME280;34860;48.066;14.124;2023-12-20T06:59:45;96537.09;;;5.90;68.98
49044;BME280;34860;48.066;14.124;2023-12-20T07:02:33;96538.75;;;5.83;69.13
49044;BME280;34860;48.066;14.124;2023-12-20T07:05:21;96538.00;;;5.76;69.22
49044;BME280;34860;48.066;14.124;2023-12-20T07:08:09;96548.72;;;5.70;69.32
49044;BME280;34860;48.066;14.124;2023-12-20T07:11:03;96544.06;;;5.63;69.36
49044;BME280;34860;48.066;14.124;2023-12-20T07:13:53;96555.50;;;5.58;70.03
49044;BME280;34860;48.066;14.124;2023-12-20T07:16:41;96553.59;;;5.55;69.72
49044;BME280;34860;48.066;14.124;2023-12-20T07:19:29;96561.09;;;5.51;69.91
49044;BME280;34860;48.066;14.124;2023-12-20T07:22:18;96565.06;;;5.46;69.95
49044;BME280;34860;48.066;14.124;2023-12-20T07:25:07;96556.03;;;5.42;70.15
49044;BME280;34860;48.066;14.124;2023-12-20T07:28:03;96556.91;;;5.32;70.31
49044;BME280;34860;48.066;14.124;2023-12-20T07:30:51;96573.13;;;5.19;70.58
49044;BME280;34860;48.066;14.124;2023-12-20T07:33:39;96587.75;;;5.09;70.88
49044;BME280;34860;48.066;14.124;2023-12-20T07:36:27;96589.38;;;4.99;70.86
49044;BME280;34860;48.066;14.124;2023-12-20T07:39:15;96579.59;;;4.95;71.12
49044;BME280;34860;48.066;14.124;2023-12-20T07:42:04;96589.44;;;4.85;70.99
49044;BME280;34860;48.066;14.124;2023-12-20T07:44:56;96589.50;;;4.74;71.53
49044;BME280;34860;48.066;14.124;2023-12-20T07:47:44;96593.88;;;4.68;71.61
49044;BME280;34860;48.066;14.124;2023-12-20T07:50:32;96599.38;;;4.61;71.50
49044;BME280;34860;48.066;14.124;2023-12-20T07:53:20;96610.44;;;4.53;71.66
49044;BME280;34860;48.066;14.124;2023-12-20T07:56:15;96617.91;;;4.46;71.62
49044;BME280;34860;48.066;14.124;2023-12-20T07:59:04;96627.38;;;4.34;71.83
49044;BME280;34860;48.066;14.124;2023-12-20T08:01:59;96623.06;;;4.26;71.98
49044;BME280;34860;48.066;14.124;2023-12-20T08:04:47;96614.47;;;4.16;72.10
49044;BME280;34860;48.066;14.124;2023-12-20T08:07:36;96627.81;;;4.11;72.30
49044;BME280;34860;48.066;14.124;2023-12-20T08:10:24;96631.75;;;4.06;72.25
49044;BME280;34860;48.066;14.124;2023-12-20T08:13:12;96632.94;;;4.02;72.24
49044;BME280;34860;48.066;14.124;2023-12-20T08:16:00;96631.38;;;3.97;72.24
49044;BME280;34860;48.066;14.124;2023-12-20T08:18:52;96631.38;;;3.93;72.48
49044;BME280;34860;48.066;14.124;2023-12-20T08:21:41;96637.66;;;3.90;72.50
49044;BME280;34860;48.066;14.124;2023-12-20T08:24:30;96639.22;;;3.88;72.42
49044;BME280;34860;48.066;14.124;2023-12-20T08:27:19;96636.09;;;3.86;72.37
49044;BME280;34860;48.066;14.124;2023-12-20T08:30:09;96649.44;;;3.84;72.62
49044;BME280;34860;48.066;14.124;2023-12-20T08:32:59;96645.91;;;3.83;72.54
49044;BME280;34860;48.066;14.124;2023-12-20T08:35:49;96649.06;;;3.85;72.46
49044;BME280;34860;48.066;14.124;2023-12-20T08:38:41;96650.22;;;3.80;72.46
49044;BME280;34860;48.066;14.124;2023-12-20T08:41:29;96646.31;;;3.81;72.37
49044;BME280;34860;48.066;14.124;2023-12-20T08:44:19;96641.19;;;3.76;72.47
49044;BME280;34860;48.066;14.124;2023-12-20T08:47:09;96652.19;;;3.76;72.50
49044;BME280;34860;48.066;14.124;2023-12-20T08:50:01;96650.22;;;3.77;72.54
49044;BME280;34860;48.066;14.124;2023-12-20T08:52:51;96651.41;;;3.76;72.63
49044;BME280;34860;48.066;14.124;2023-12-20T08:55:42;96647.47;;;3.77;72.70
49044;BME280;34860;48.066;14.124;2023-12-20T08:58:30;96648.25;;;3.77;72.72
49044;BME280;34860;48.066;14.124;2023-12-20T09:01:18;96646.69;;;3.80;72.60
49044;BME280;34860;48.066;14.124;2023-12-20T09:04:06;96653.75;;;3.81;72.59
49044;BME280;34860;48.066;14.124;2023-12-20T09:06:55;96638.84;;;3.82;72.69
49044;BME280;34860;48.066;14.124;2023-12-20T09:09:44;96644.72;;;3.84;72.85
49044;BME280;34860;48.066;14.124;2023-12-20T09:12:34;96643.53;;;3.89;72.74
49044;BME280;34860;48.066;14.124;2023-12-20T09:15:23;96642.38;;;3.93;72.63
49044;BME280;34860;48.066;14.124;2023-12-20T09:18:11;96646.69;;;3.98;72.69
49044;BME280;34860;48.066;14.124;2023-12-20T09:20:59;96645.13;;;4.00;72.64
49044;BME280;34860;48.066;14.124;2023-12-20T09:23:50;96642.75;;;4.06;72.71
49044;BME280;34860;48.066;14.124;2023-12-20T09:26:42;96644.31;;;4.14;72.60
49044;BME280;34860;48.066;14.124;2023-12-20T09:29:31;96638.81;;;4.22;72.47
49044;BME280;34860;48.066;14.124;2023-12-20T09:32:19;96641.94;;;4.27;72.51
49044;BME280;34860;48.066;14.124;2023-12-20T09:35:08;96650.19;;;4.31;72.55
49044;BME280;34860;48.066;14.124;2023-12-20T09:37:58;96640.34;;;4.33;72.61
49044;BME280;34860;48.066;14.124;2023-12-20T09:40:49;96634.44;;;4.39;72.59
49044;BME280;34860;48.066;14.124;2023-12-20T09:43:39;96633.25;;;4.40;72.61
49044;BME280;34860;48.066;14.124;2023-12-20T09:46:32;96624.63;;;4.41;72.77
49044;BME280;34860;48.066;14.124;2023-12-20T09:49:20;96621.06;;;4.44;72.93
49044;BME280;34860;48.066;14.124;2023-12-20T09:52:09;96611.63;;;4.49;72.84
49044;BME280;34860;48.066;14.124;2023-12-20T09:54:59;96612.38;;;4.53;72.87
49044;BME280;34860;48.066;14.124;2023-12-20T09:57:51;96609.63;;;4.57;73.01
49044;BME280;34860;48.066;14.124;2023-12-20T10:00:42;96610.38;;;4.61;73.20
49044;BME280;34860;48.066;14.124;2023-12-20T10:03:31;96605.66;;;4.65;72.95
49044;BME280;34860;48.066;14.124;2023-12-20T10:06:19;96610.78;;;4.66;73.14
49044;BME280;34860;48.066;14.124;2023-12-20T10:09:08;96599.75;;;4.66;73.09
49044;BME280;34860;48.066;14.124;2023-12-20T10:11:57;96601.72;;;4.69;72.86
49044;BME280;34860;48.066;14.124;2023-12-20T10:14:45;96596.59;;;4.71;73.14
49044;BME280;34860;48.066;14.124;2023-12-20T10:17:35;96595.78;;;4.75;73.20
49044;BME280;34860;48.066;14.124;2023-12-20T10:20:23;96607.59;;;4.79;73.23
49044;BME280;34860;48.066;14.124;2023-12-20T10:23:11;96596.16;;;4.80;73.26
49044;BME280;34860;48.066;14.124;2023-12-20T10:26:00;96593.41;;;4.84;73.28
49044;BME280;34860;48.066;14.124;2023-12-20T10:28:50;96594.16;;;4.88;73.19
49044;BME280;34860;48.066;14.124;2023-12-20T10:31:38;96586.28;;;4.90;73.28
49044;BME280;34860;48.066;14.124;2023-12-20T10:34:28;96586.28;;;4.90;73.33
49044;BME280;34860;48.066;14.124;2023-12-20T10:37:16;96588.25;;;4.93;73.34
49044;BME280;34860;48.066;14.124;2023-12-20T10:40:06;96575.63;;;4.96;73.37
49044;BME280;34860;48.066;14.124;2023-12-20T10:42:54;96578.34;;;4.99;73.19
49044;BME280;34860;48.066;14.124;2023-12-20T10:45:45;96576.75;;;5.05;73.21
49044;BME280;34860;48.066;14.124;2023-12-20T10:48:34;96570.44;;;5.08;73.21
49044;BME280;34860;48.066;14.124;2023-12-20T10:51:28;96572.81;;;5.06;73.26
49044;BME280;34860;48.066;14.124;2023-12-20T10:54:16;96559.41;;;5.08;73.38
49044;BME280;34860;48.066;14.124;2023-12-20T10:57:06;96565.31;;;5.11;73.22
49044;BME280;34860;48.066;14.124;2023-12-20T10:59:55;96574.72;;;5.13;73.26
49044;BME280;34860;48.066;14.124;2023-12-20T11:02:49;96559.81;;;5.11;73.37
49044;BME280;34860;48.066;14.124;2023-12-20T11:05:42;96560.22;;;5.05;73.37
49044;BME280;34860;48.066;14.124;2023-12-20T11:08:41;96560.66;;;5.00;73.76
49044;BME280;34860;48.066;14.124;2023-12-20T11:11:37;96558.28;;;4.99;74.04
49044;BME280;34860;48.066;14.124;2023-12-20T11:14:34;96558.28;;;5.06;73.81
49044;BME280;34860;48.066;14.124;2023-12-20T11:17:28;96558.63;;;5.08;73.79
49044;BME280;34860;48.066;14.124;2023-12-20T11:20:19;96547.63;;;5.08;73.96
49044;BME280;34860;48.066;14.124;2023-12-20T11:23:08;96544.91;;;5.04;73.96
49044;BME280;34860;48.066;14.124;2023-12-20T11:26:01;96548.06;;;5.03;73.96
49044;BME280;34860;48.066;14.124;2023-12-20T11:28:49;96542.50;;;5.06;74.00
49044;BME280;34860;48.066;14.124;2023-12-20T11:31:40;96543.75;;;4.98;74.22
49044;BME280;34860;48.066;14.124;2023-12-20T11:34:28;96546.94;;;4.93;74.30
49044;BME280;34860;48.066;14.124;2023-12-20T11:37:20;96552.44;;;4.93;74.27
49044;BME280;34860;48.066;14.124;2023-12-20T11:40:16;96545.38;;;4.88;74.42
49044;BME280;34860;48.066;14.124;2023-12-20T11:43:08;96554.44;;;4.85;74.48
49044;BME280;34860;48.066;14.124;2023-12-20T11:46:03;96547.38;;;4.81;74.53
49044;BME280;34860;48.066;14.124;2023-12-20T11:48:51;96548.97;;;4.78;74.53
49044;BME280;34860;48.066;14.124;2023-12-20T11:51:44;96546.63;;;4.73;74.70
49044;BME280;34860;48.066;14.124;2023-12-20T11:54:32;96534.06;;;4.76;74.61
49044;BME280;34860;48.066;14.124;2023-12-20T11:57:21;96545.03;;;4.79;74.49
49044;BME280;34860;48.066;14.124;2023-12-20T12:00:15;96537.56;;;4.80;74.49
49044;BME280;34860;48.066;14.124;2023-12-20T12:03:03;96541.47;;;4.82;74.59
49044;BME280;34860;48.066;14.124;2023-12-20T12:05:51;96540.69;;;4.85;74.47
49044;BME280;34860;48.066;14.124;2023-12-20T12:08:39;96544.59;;;4.88;74.42
49044;BME280;34860;48.066;14.124;2023-12-20T12:11:29;96537.53;;;4.87;74.49
49044;BME280;34860;48.066;14.124;2023-12-20T12:14:17;96537.53;;;4.87;74.35
49044;BME280;34860;48.066;14.124;2023-12-20T12:17:11;96548.13;;;4.92;74.34
49044;BME280;34860;48.066;14.124;2023-12-20T12:20:03;96542.97;;;4.94;74.35
49044;BME280;34860;48.066;14.124;2023-12-20T12:22:59;96542.56;;;4.96;74.29
49044;BME280;34860;48.066;14.124;2023-12-20T12:25:51;96536.69;;;4.94;74.34
49044;BME280;34860;48.066;14.124;2023-12-20T12:28:40;96533.16;;;4.93;74.48
49044;BME280;34860;48.066;14.124;2023-12-20T12:31:28;96530.00;;;4.91;74.47
49044;BME280;34860;48.066;14.124;2023-12-20T12:34:23;96526.13;;;4.81;74.83
49044;BME280;34860;48.066;14.124;2023-12-20T12:37:15;96534.47;;;4.74;74.87
49044;BME280;34860;48.066;14.124;2023-12-20T12:40:04;96527.75;;;4.75;74.92
49044;BME280;34860;48.066;14.124;2023-12-20T12:42:52;96531.69;;;4.78;74.96
49044;BME280;34860;48.066;14.124;2023-12-20T12:45:40;96527.75;;;4.79;74.88
49044;BME280;34860;48.066;14.124;2023-12-20T12:48:28;96519.50;;;4.79;74.89
49044;BME280;34860;48.066;14.124;2023-12-20T12:51:19;96520.66;;;4.78;74.71
49044;BME280;34860;48.066;14.124;2023-12-20T12:54:07;96530.50;;;4.75;75.00
49044;BME280;34860;48.066;14.124;2023-12-20T12:56:56;96527.41;;;4.69;75.11
49044;BME280;34860;48.066;14.124;2023-12-20T12:59:48;96528.97;;;4.67;74.98
49044;BME280;34860;48.066;14.124;2023-12-20T13:02:42;96530.19;;;4.59;75.21
49044;BME280;34860;48.066;14.124;2023-12-20T13:05:30;96520.00;;;4.55;75.29
49044;BME280;34860;48.066;14.124;2023-12-20T13:08:23;96518.84;;;4.49;75.45
49044;BME280;34860;48.066;14.124;2023-12-20T13:11:11;96521.22;;;4.44;75.60
49044;BME280;34860;48.066;14.124;2023-12-20T13:13:59;96520.84;;;4.42;75.53
49044;BME280;34860;48.066;14.124;2023-12-20T13:16:47;96510.63;;;4.42;75.50
49044;BME280;34860;48.066;14.124;2023-12-20T13:19:37;96508.25;;;4.44;75.51
49044;BME280;34860;48.066;14.124;2023-12-20T13:22:25;96507.06;;;4.49;75.26
49044;BME280;34860;48.066;14.124;2023-12-20T13:25:15;96496.00;;;4.56;75.19
49044;BME280;34860;48.066;14.124;2023-12-20T13:28:04;96501.47;;;4.63;75.22
49044;BME280;34860;48.066;14.124;2023-12-20T13:30:53;96504.97;;;4.67;75.06
49044;BME280;34860;48.066;14.124;2023-12-20T13:33:42;96493.97;;;4.71;74.92
49044;BME280;34860;48.066;14.124;2023-12-20T13:36:30;96495.50;;;4.72;74.98
49044;BME280;34860;48.066;14.124;2023-12-20T13:39:18;96486.44;;;4.75;74.98
49044;BME280;34860;48.066;14.124;2023-12-20T13:42:08;96482.06;;;4.85;74.81
49044;BME280;34860;48.066;14.124;2023-12-20T13:44:57;96485.50;;;4.96;74.66
49044;BME280;34860;48.066;14.124;2023-12-20T13:47:45;96493.72;;;5.07;74.28
49044;BME280;34860;48.066;14.124;2023-12-20T13:50:34;96485.03;;;5.08;74.41
49044;BME280;34860;48.066;14.124;2023-12-20T13:53:24;96471.66;;;5.11;74.42
49044;BME280;34860;48.066;14.124;2023-12-20T13:56:15;96477.19;;;5.07;74.41
49044;BME280;34860;48.066;14.124;2023-12-20T13:59:05;96477.22;;;5.03;74.62
49044;BME280;34860;48.066;14.124;2023-12-20T14:01:55;96478.03;;;5.00;74.90
49044;BME280;34860;48.066;14.124;2023-12-20T14:04:47;96489.03;;;5.00;74.77
49044;BME280;34860;48.066;14.124;2023-12-20T14:07:36;96485.88;;;5.02;74.64
49044;BME280;34860;48.066;14.124;2023-12-20T14:10:25;96486.28;;;5.00;74.77
49044;BME280;34860;48.066;14.124;2023-12-20T14:13:16;96490.22;;;5.03;74.74
49044;BME280;34860;48.066;14.124;2023-12-20T14:16:06;96488.22;;;5.03;74.71
49044;BME280;34860;48.066;14.124;2023-12-20T14:18:57;96488.22;;;5.03;74.80
49044;BME280;34860;48.066;14.124;2023-12-20T14:21:45;96485.06;;;5.05;74.73
49044;BME280;34860;48.066;14.124;2023-12-20T14:24:34;96494.13;;;5.05;74.81
49044;BME280;34860;48.066;14.124;2023-12-20T14:27:26;96498.84;;;5.05;74.84
49044;BME280;34860;48.066;14.124;2023-12-20T14:30:15;96502.00;;;5.03;74.93
49044;BME280;34860;48.066;14.124;2023-12-20T14:33:08;96505.16;;;5.02;74.83
49044;BME280;34860;48.066;14.124;2023-12-20T14:35:57;96505.56;;;5.00;75.07
49044;BME280;34860;48.066;14.124;2023-12-20T14:38:46;96505.56;;;5.00;74.99
49044;BME280;34860;48.066;14.124;2023-12-20T14:41:36;96510.31;;;5.00;75.15
49044;BME280;34860;48.066;14.124;2023-12-20T14:44:25;96506.38;;;4.97;75.19
49044;BME280;34860;48.066;14.124;2023-12-20T14:47:13;96505.63;;;4.93;75.33
49044;BME280;34860;48.066;14.124;2023-12-20T14:50:04;96513.88;;;4.89;75.40
49044;BME280;34860;48.066;14.124;2023-12-20T14:52:53;96519.03;;;4.87;75.37
49044;BME280;34860;48.066;14.124;2023-12-20T14:55:45;96519.03;;;4.87;75.32
49044;BME280;34860;48.066;14.124;2023-12-20T14:58:34;96511.16;;;4.86;75.24